Time;durP1;ratioP1;P1;durP2;ratioP2;P2;SDS_P1;SDS_P2;PMS_P1;PMS_P2;Temp;Humidity;BMP_temperature;BMP_pressure;BME280_temperature;BME280_humidity;BME280_pressure;Samples;Min_cycle;Max_cycle;Signal;HPM_P1;HPM_P2
2021/05/18 00:00:44;;;;;;;13.45;4.50;;;10.90;99.90;;;10.64;93.52;101368.59;4105162;28;20035;-71
2021/05/18 00:02:46;;;;;;;16.15;3.30;;;10.90;99.90;;;10.54;94.24;101372.06;4104953;28;20071;-71
2021/05/18 00:04:47;;;;;;;20.10;3.92;;;10.90;99.90;;;10.53;94.80;101359.03;4104954;28;20031;-72
2021/05/18 00:06:49;;;;;;;14.43;2.85;;;10.90;99.90;;;10.56;94.78;101350.84;4103914;28;20027;-71
2021/05/18 00:13:30;;;;;;;18.02;3.50;;;11.00;99.90;;;10.61;94.07;101327.50;4120955;28;20038;-71
2021/05/18 00:15:31;;;;;;;12.13;2.53;;;11.00;99.90;;;10.73;93.42;101334.28;4120951;28;20027;-71
2021/05/18 00:17:32;;;;;;;13.88;3.20;;;10.90;99.90;;;10.64;94.08;101332.50;4120933;28;20027;-71
2021/05/18 00:19:33;;;;;;;10.02;2.83;;;11.00;99.90;;;10.60;94.30;101352.22;4120948;28;20022;-71
2021/05/18 00:21:35;;;;;;;7.22;2.45;;;10.90;99.90;;;10.63;94.69;101356.38;4121033;28;20033;-71
2021/05/18 00:23:37;;;;;;;12.55;2.60;;;10.90;99.90;;;10.64;94.25;101352.75;4113294;28;20027;-71
2021/05/18 00:25:39;;;;;;;15.48;3.65;;;11.00;99.90;;;10.70;94.09;101346.91;4104684;28;20093;-71
2021/05/18 00:27:41;;;;;;;13.27;3.28;;;10.90;99.90;;;10.59;94.19;101345.28;4104602;28;20026;-71
2021/05/18 00:29:42;;;;;;;12.35;3.53;;;10.90;99.90;;;10.61;94.05;101351.25;4104822;28;20028;-71
2021/05/18 00:31:43;;;;;;;15.30;3.05;;;10.90;99.90;;;10.54;94.38;101350.97;4104795;28;20034;-71
2021/05/18 00:33:44;;;;;;;14.52;3.17;;;10.80;99.90;;;10.49;94.59;101345.28;4104794;28;20063;-71
2021/05/18 00:35:46;;;;;;;15.40;4.00;;;10.80;99.90;;;10.56;94.05;101350.84;4104667;28;20067;-71
2021/05/18 00:37:47;;;;;;;13.98;2.83;;;10.80;99.90;;;10.47;94.32;101346.41;4104868;28;20070;-71
2021/05/18 00:39:49;;;;;;;13.52;2.95;;;10.80;99.90;;;10.43;94.95;101360.84;4103374;28;20063;-71
2021/05/18 00:41:50;;;;;;;8.95;2.95;;;10.80;99.90;;;10.40;95.11;101351.41;4104644;28;20035;-71
2021/05/18 00:43:51;;;;;;;14.38;4.28;;;10.70;99.90;;;10.20;95.39;101323.38;4103282;28;20582;-71
2021/05/18 00:45:52;;;;;;;11.20;3.80;;;10.60;99.90;;;10.27;95.12;101327.16;4104671;28;20028;-71
2021/05/18 00:47:54;;;;;;;18.23;3.95;;;10.60;99.90;;;10.29;94.40;101311.16;4104607;28;20526;-71
2021/05/18 00:49:54;;;;;;;14.55;3.88;;;10.60;99.90;;;10.21;94.84;101308.41;4104559;28;20034;-71
2021/05/18 00:51:55;;;;;;;11.30;3.50;;;10.50;99.90;;;10.24;94.85;101323.94;4104532;28;20050;-71
2021/05/18 00:53:59;;;;;;;13.13;3.30;;;10.50;99.90;;;10.12;95.27;101315.31;4104537;28;20034;-71
2021/05/18 00:56:08;;;;;;;16.63;3.90;;;10.50;99.90;;;10.07;96.14;101320.16;4104429;28;20391;-71
2021/05/18 01:00:29;;;;;;;14.95;4.72;;;10.40;99.90;;;10.11;96.02;101333.91;4104555;28;20118;-71
2021/05/18 01:02:30;;;;;;;16.38;2.97;;;10.40;99.90;;;10.09;96.50;101330.56;4104188;28;20054;-71
2021/05/18 01:04:31;;;;;;;16.88;3.47;;;10.40;99.90;;;9.99;96.69;101320.03;4104371;28;20019;-71
2021/05/18 01:06:33;;;;;;;13.85;3.55;;;10.40;99.90;;;10.11;96.16;101333.91;4104382;28;20027;-71
2021/05/18 01:08:34;;;;;;;10.10;3.60;;;10.40;99.90;;;10.12;95.58;101323.22;4104855;28;20027;-71
2021/05/18 01:10:35;;;;;;;12.88;3.40;;;10.50;99.90;;;10.12;96.17;101332.94;4119073;28;20434;-71
2021/05/18 01:12:36;;;;;;;12.88;3.90;;;10.50;99.90;;;10.01;96.05;101318.91;4120256;28;20023;-71
2021/05/18 01:14:37;;;;;;;11.63;4.10;;;10.40;99.90;;;10.14;96.11;101338.91;4118973;28;20054;-71
2021/05/18 01:16:41;;;;;;;14.70;4.15;;;10.40;99.90;;;10.05;96.64;101337.09;4119860;28;20110;-71
2021/05/18 01:18:45;;;;;;;16.33;3.60;;;10.40;99.90;;;10.14;95.89;101333.66;4120091;28;20080;-71
2021/05/18 01:21:00;;;;;;;12.15;3.30;;;10.40;99.90;;;10.05;95.84;101329.19;4120252;28;20474;-71
2021/05/18 01:23:01;;;;;;;10.32;3.80;;;10.40;99.90;;;10.10;96.71;101337.50;4117995;28;20030;-71
2021/05/18 01:25:04;;;;;;;14.02;3.33;;;10.40;99.90;;;10.19;95.87;101352.50;4102948;28;20019;-71
2021/05/18 01:27:06;;;;;;;17.30;4.73;;;10.40;99.90;;;10.11;96.34;101349.72;4104260;28;20027;-71
2021/05/18 01:29:08;;;;;;;10.60;3.88;;;10.50;99.90;;;10.12;96.95;101354.03;4102796;28;20275;-71
2021/05/18 01:31:13;;;;;;;16.65;3.28;;;10.50;99.90;;;10.10;96.58;101351.50;4103891;28;20035;-71
2021/05/18 01:33:14;;;;;;;12.88;3.15;;;10.50;99.90;;;10.10;96.38;101350.66;4118788;28;20038;-71
2021/05/18 01:35:15;;;;;;;9.88;2.97;;;10.40;99.90;;;10.12;96.40;101344.31;4103026;28;20027;-71
2021/05/18 01:37:16;;;;;;;11.32;2.72;;;10.40;99.90;;;10.04;96.56;101323.06;4104017;28;20031;-71
2021/05/18 01:43:38;;;;;;;7.88;2.42;;;10.50;99.90;;;10.08;97.16;101335.00;4104131;28;20070;-71
2021/05/18 01:45:41;;;;;;;11.73;2.88;;;10.50;99.90;;;10.15;97.20;101337.97;4103828;28;20031;-71
2021/05/18 01:47:48;;;;;;;16.10;3.13;;;10.50;99.90;;;10.19;96.84;101334.06;4104012;28;20059;-71
2021/05/18 01:49:49;;;;;;;18.10;3.80;;;10.50;99.90;;;10.15;97.00;101319.50;4102865;28;20023;-71
2021/05/18 01:51:55;;;;;;;14.93;4.70;;;10.50;99.90;;;10.27;96.16;101313.13;4104013;28;20035;-71
2021/05/18 01:54:03;;;;;;;14.35;3.40;;;10.50;99.90;;;10.22;96.31;101307.41;4103884;28;20086;-71
2021/05/18 01:56:19;;;;;;;12.07;3.60;;;10.60;99.90;;;10.15;96.92;101299.25;4102591;28;20059;-71
2021/05/18 01:58:20;;;;;;;10.98;3.65;;;10.60;99.90;;;10.19;96.54;101292.72;4103760;28;20086;-71
2021/05/18 02:00:29;;;;;;;11.13;3.50;;;10.60;99.90;;;10.14;97.12;101302.00;4103732;28;20554;-71
2021/05/18 02:02:30;;;;;;;10.98;2.83;;;10.60;99.90;;;10.17;97.75;101305.22;4102407;28;20535;-71
2021/05/18 02:04:49;;;;;;;16.10;3.30;;;10.50;99.90;;;10.26;97.50;101319.34;4102598;28;20035;-71
2021/05/18 02:06:52;;;;;;;15.02;4.38;;;10.60;99.90;;;10.24;97.87;101330.06;4103601;28;20030;-71
2021/05/18 02:08:53;;;;;;;19.95;4.25;;;10.60;99.90;;;10.25;97.52;101325.59;4106581;28;20034;-71
2021/05/18 02:10:54;;;;;;;14.50;3.53;;;10.60;99.90;;;10.22;97.66;101329.34;4119625;28;20019;-71
2021/05/18 02:12:56;;;;;;;12.93;2.92;;;10.60;99.90;;;10.24;97.82;101334.50;4119625;28;20371;-71
2021/05/18 02:15:16;;;;;;;19.85;3.88;;;10.50;99.90;;;10.19;97.58;101320.88;4119589;28;20027;-71
2021/05/18 02:26:47;;;;;;;17.85;4.60;;;10.60;99.90;;;10.20;97.99;101318.13;4119550;28;20037;-71
2021/05/18 02:28:49;;;;;;;19.65;3.40;;;10.60;99.90;;;10.34;97.01;101330.03;4118670;28;20054;-71
2021/05/18 02:30:50;;;;;;;18.52;4.60;;;10.60;99.90;;;10.19;97.51;101318.25;4137512;28;20029;-71
2021/05/18 02:32:53;;;;;;;15.48;3.25;;;10.60;99.90;;;10.29;97.78;101329.63;4122492;28;20025;-71
2021/05/18 02:34:54;;;;;;;10.25;2.67;;;10.60;99.90;;;10.28;98.03;101336.69;4121713;28;20031;-71
2021/05/18 02:36:55;;;;;;;15.75;3.10;;;10.60;99.90;;;10.31;97.75;101320.59;4137339;28;20033;-71
2021/05/18 02:38:56;;;;;;;12.52;3.50;;;10.70;99.90;;;10.27;97.00;101313.13;4122650;28;20042;-71
2021/05/18 02:40:57;;;;;;;14.60;3.35;;;10.60;99.90;;;10.31;97.12;101319.75;4120952;28;20054;-71
2021/05/18 02:42:58;;;;;;;11.07;3.40;;;10.60;99.90;;;10.25;97.64;101318.53;4122557;28;20073;-71
2021/05/18 02:45:07;;;;;;;14.70;3.58;;;10.60;99.90;;;10.35;97.42;101310.59;4122613;28;20023;-71
2021/05/18 02:49:28;;;;;;;12.00;3.22;;;10.60;99.90;;;10.41;95.95;101317.97;4122676;28;20110;-71
2021/05/18 02:51:29;;;;;;;14.73;4.38;;;10.70;99.90;;;10.35;96.51;101315.88;4122454;28;20094;-71
2021/05/18 02:53:30;;;;;;;12.25;3.97;;;10.70;99.90;;;10.24;97.05;101313.41;4122412;28;20027;-71
2021/05/18 02:58:07;;;;;;;12.30;4.82;;;10.60;99.90;;;10.13;97.62;101302.94;4089505;28;20505;-71
2021/05/18 03:00:14;;;;;;;16.58;5.38;;;10.60;99.90;;;10.19;97.98;101310.31;4122199;28;20117;-71
2021/05/18 03:02:15;;;;;;;16.15;4.28;;;10.60;99.90;;;10.06;98.05;101301.84;4121957;28;20106;-71
2021/05/18 03:04:17;;;;;;;14.07;3.42;;;10.60;99.90;;;10.00;98.19;101300.63;4121043;28;20483;-71
2021/05/18 03:06:18;;;;;;;11.35;3.20;;;10.50;99.90;;;10.18;97.68;101300.78;4137182;28;20090;-71
2021/05/18 03:08:20;;;;;;;14.60;4.03;;;10.50;99.90;;;10.12;97.47;101298.66;4121966;28;20023;-71
2021/05/18 03:10:22;;;;;;;14.52;4.88;;;10.50;99.90;;;9.91;97.66;101296.16;4107031;28;20023;-71
2021/05/18 03:12:23;;;;;;;18.23;4.75;;;10.40;99.90;;;9.85;98.83;101297.56;4104889;28;20114;-71
2021/05/18 03:14:24;;;;;;;12.40;4.57;;;10.40;99.90;;;9.87;99.11;101289.50;4106025;28;20031;-71
2021/05/18 03:16:25;;;;;;;10.43;3.50;;;10.40;99.90;;;9.84;99.44;101274.81;4105876;28;20031;-71
2021/05/18 03:18:26;;;;;;;16.33;4.45;;;10.30;99.90;;;9.93;99.25;101284.50;4105912;28;20070;-71
2021/05/18 03:20:27;;;;;;;13.95;4.85;;;10.30;99.90;;;10.02;99.00;101281.03;4106142;28;20081;-71
2021/05/18 03:22:28;;;;;;;16.02;3.50;;;10.30;99.90;;;9.98;98.85;101277.00;4115113;28;20494;-71
2021/05/18 03:24:29;;;;;;;15.27;3.50;;;10.40;99.90;;;9.97;99.07;101279.81;4108293;28;20023;-71
2021/05/18 03:26:31;;;;;;;10.63;3.30;;;10.30;99.90;;;9.83;99.09;101267.03;4104548;28;20033;-71
2021/05/18 03:28:33;;;;;;;13.02;3.60;;;10.30;99.90;;;9.86;98.89;101272.00;4105785;28;20038;-71
2021/05/18 03:34:54;;;;;;;14.13;4.10;;;10.20;99.90;;;9.81;99.33;101280.34;4105720;28;20094;-71
2021/05/18 03:36:59;;;;;;;14.25;3.90;;;10.20;99.90;;;9.81;98.63;101267.19;4105705;28;20499;-71
2021/05/18 03:39:00;;;;;;;9.73;3.65;;;10.20;99.90;;;9.87;98.80;101290.34;4105600;28;20041;-71
2021/05/18 03:41:08;;;;;;;14.35;3.17;;;10.20;99.90;;;10.12;97.10;101293.41;4104985;28;20032;-71
2021/05/18 03:43:32;;;;;;;15.15;3.28;;;10.30;99.90;;;10.08;97.29;101287.56;4105667;28;20062;-71
2021/05/18 03:45:35;;;;;;;9.38;3.00;;;10.30;99.90;;;9.95;97.25;101276.47;4105273;28;20059;-71
2021/05/18 03:52:22;;;;;;;10.35;3.60;;;10.30;99.90;;;9.76;98.58;101293.13;4104303;28;20034;-71
2021/05/18 04:03:54;;;;;;;12.02;2.78;;;10.10;99.90;;;9.67;98.43;101293.94;4087785;29;20055;-71
2021/05/18 04:17:00;;;;;;;9.70;3.40;;;10.30;99.90;;;9.89;99.13;101283.13;4116245;28;20066;-71
2021/05/18 04:19:07;;;;;;;9.70;2.97;;;10.30;99.90;;;9.94;99.52;101294.09;4105090;28;20490;-71
2021/05/18 04:21:15;;;;;;;13.45;3.67;;;10.30;99.90;;;9.89;99.75;101298.94;4104859;28;20035;-72
2021/05/18 04:50:43;;;;;;;12.32;3.80;;;10.50;99.90;;;10.12;99.20;101294.22;4104605;28;20491;-71
2021/05/18 04:59:09;;;;;;;12.52;3.28;;;10.60;99.90;;;10.28;99.15;101310.31;4104472;28;20069;-71
2021/05/18 05:01:21;;;;;;;11.82;3.30;;;10.60;99.90;;;10.27;99.57;101306.06;4104105;28;20031;-71
2021/05/18 05:08:12;;;;;;;11.90;3.17;;;10.80;99.90;;;10.47;99.31;101320.03;4104411;28;20110;-71
2021/05/18 05:10:13;;;;;;;14.35;2.92;;;10.80;99.90;;;10.38;98.90;101316.44;4117560;28;20494;-71
2021/05/18 05:14:24;;;;;;;14.07;3.17;;;10.90;99.90;;;10.57;98.76;101320.84;4119003;28;20039;-72
2021/05/18 05:16:25;;;;;;;14.47;4.53;;;11.00;99.90;;;10.70;97.42;101328.44;4119936;28;20034;-71
2021/05/18 05:18:26;;;;;;;12.15;3.50;;;11.00;99.90;;;10.71;97.94;101323.03;4120086;28;20278;-72
2021/05/18 05:20:28;;;;;;;13.85;2.78;;;11.10;99.90;;;10.75;97.77;101324.41;4118981;28;20037;-71
2021/05/18 05:22:28;;;;;;;13.18;2.60;;;11.10;99.90;;;10.66;98.03;101320.00;4119931;28;20035;-71
2021/05/18 05:24:30;;;;;;;8.95;2.50;;;11.20;99.90;;;10.59;97.79;101310.16;4106603;28;20536;-72
2021/05/18 05:26:31;;;;;;;9.70;2.80;;;11.10;99.90;;;10.60;98.17;101320.56;4104001;28;20437;-72
2021/05/18 05:28:32;;;;;;;11.35;2.90;;;11.10;99.90;;;10.47;98.79;101320.03;4104117;28;20114;-71
2021/05/18 05:30:33;;;;;;;8.70;2.88;;;11.10;99.90;;;10.42;98.89;101317.00;4104062;28;20372;-71
2021/05/18 05:32:34;;;;;;;7.80;2.60;;;11.10;99.90;;;10.50;99.12;101325.03;4103799;28;20487;-71
2021/05/18 05:34:35;;;;;;;12.55;3.17;;;11.10;99.90;;;10.57;98.97;101313.75;4103732;28;20034;-72
2021/05/18 05:36:39;;;;;;;10.98;2.40;;;11.10;99.90;;;10.67;98.53;101305.81;4102850;28;20023;-72
2021/05/18 05:38:40;;;;;;;10.95;2.60;;;11.20;99.90;;;10.77;98.40;101314.56;4102813;28;20434;-72
2021/05/18 05:40:41;;;;;;;13.27;2.67;;;11.30;99.90;;;10.84;98.57;101312.19;4103625;28;20034;-72
2021/05/18 05:42:42;;;;;;;12.95;3.40;;;11.30;99.90;;;10.81;98.35;101300.06;4103672;28;20058;-72
2021/05/18 05:44:43;;;;;;;11.40;3.33;;;11.40;99.90;;;10.96;98.67;101308.38;4104005;28;20027;-71
2021/05/18 05:46:44;;;;;;;11.23;3.00;;;11.40;99.90;;;11.04;97.95;101301.41;4103692;28;20023;-72
2021/05/18 05:48:52;;;;;;;8.77;2.65;;;11.50;99.90;;;11.14;98.17;101303.19;4103702;28;20030;-72
2021/05/18 05:50:53;;;;;;;13.00;2.95;;;11.60;99.90;;;11.16;98.24;101301.22;4087328;29;20030;-72
2021/05/18 05:52:54;;;;;;;10.35;3.53;;;11.60;99.90;;;11.09;98.03;101285.94;4103820;28;20032;-71
2021/05/18 05:54:55;;;;;;;10.43;3.20;;;11.70;99.90;;;11.22;98.01;101304.09;4102293;28;20553;-72
2021/05/18 05:56:56;;;;;;;11.35;3.58;;;11.70;99.90;;;11.35;97.32;101306.41;4102524;28;20032;-72
2021/05/18 05:59:00;;;;;;;8.57;3.35;;;11.80;99.90;;;11.39;97.20;101308.59;4103854;28;20078;-72
2021/05/18 06:01:01;;;;;;;8.20;2.40;;;11.80;99.90;;;11.41;97.25;101306.63;4102540;28;20511;-71
2021/05/18 06:03:02;;;;;;;6.40;2.40;;;11.90;99.90;;;11.47;97.19;101302.56;4102735;28;20051;-72
2021/05/18 06:05:04;;;;;;;9.30;2.58;;;12.00;99.90;;;11.59;96.68;101317.22;4105579;28;20023;-72
2021/05/18 06:07:05;;;;;;;12.93;2.60;;;12.10;99.90;;;11.66;96.26;101321.78;4106867;28;20019;-71
2021/05/18 06:09:07;;;;;;;9.80;2.42;;;12.10;99.90;;;11.65;95.74;101322.75;4111547;28;20462;-72
2021/05/18 06:11:16;;;;;;;11.45;2.60;;;12.20;99.90;;;11.70;95.81;101329.44;4121463;28;20449;-71
2021/05/18 06:13:43;;;;;;;13.05;2.60;;;12.30;99.90;;;11.76;94.94;101326.22;4136671;28;20035;-72
2021/05/18 06:29:50;;;;;;;16.33;4.00;;;12.60;99.90;;;12.04;92.85;101331.28;4105953;28;20039;-73
2021/05/18 06:34:38;;;;;;;9.93;2.50;;;12.70;99.90;;;12.00;92.99;101337.03;4122304;28;20119;-71
2021/05/18 06:47:42;;;;;;;12.15;2.67;;;12.90;99.90;;;12.25;91.95;101346.84;4112764;28;20494;-73
2021/05/18 06:49:46;;;;;;;9.27;2.55;;;12.90;99.90;;;12.20;91.14;101336.72;4115368;28;20077;-73
2021/05/18 06:51:48;;;;;;;10.73;3.10;;;13.00;99.90;;;12.30;91.33;101356.97;4119302;28;20034;-73
2021/05/18 06:53:49;;;;;;;16.50;3.47;;;13.00;99.90;;;12.33;91.27;101352.22;4119842;28;20042;-72
2021/05/18 06:55:52;;;;;;;9.57;2.50;;;13.10;99.90;;;12.42;90.95;101356.59;4120071;28;20027;-72
2021/05/18 06:58:02;;;;;;;10.48;4.00;;;13.20;99.90;;;12.39;91.07;101338.38;4105020;28;20090;-71
2021/05/18 07:00:09;;;;;;;10.98;2.78;;;13.20;99.90;;;12.38;91.67;101333.22;4104063;28;20569;-71
2021/05/18 07:02:10;;;;;;;11.23;2.35;;;13.20;99.90;;;12.44;91.11;101330.81;4119918;28;20118;-71
2021/05/18 07:04:12;;;;;;;12.95;2.75;;;13.30;99.90;;;12.56;90.62;101339.31;4121283;28;20035;-70
2021/05/18 07:10:27;;;;;;;9.25;2.67;;;13.50;99.90;;;12.71;90.27;101362.44;4114603;28;20027;-70
2021/05/18 07:12:28;;;;;;;12.25;2.80;;;13.50;99.90;;;12.82;89.64;101357.88;4105649;28;20224;-71
2021/05/18 07:14:28;;;;;;;11.10;3.20;;;13.60;99.90;;;12.82;89.69;101348.09;4105160;28;20483;-71
2021/05/18 07:16:30;;;;;;;9.57;2.20;;;13.60;99.90;;;12.75;90.10;101353.19;4120824;28;20027;-71
2021/05/18 07:18:31;;;;;;;7.38;2.42;;;13.60;99.90;;;12.62;90.85;101341.34;4114933;28;20507;-72
2021/05/18 07:20:32;;;;;;;12.18;2.58;;;13.60;99.90;;;12.61;91.35;101334.38;4119916;28;20031;-72
2021/05/18 07:22:33;;;;;;;8.32;2.97;;;13.60;99.90;;;12.70;91.15;101344.88;4116201;28;20026;-72
2021/05/18 07:24:34;;;;;;;10.02;3.58;;;13.60;99.90;;;12.71;91.41;101345.72;4104951;28;20632;-73
2021/05/18 07:26:35;;;;;;;14.63;2.38;;;13.60;99.90;;;12.87;90.67;101334.41;4105362;28;20031;-73
2021/05/18 07:28:36;;;;;;;13.23;4.15;;;13.70;99.90;;;12.80;90.22;101347.44;4105307;28;20038;-73
2021/05/18 07:30:39;;;;;;;9.10;2.13;;;13.70;99.90;;;12.84;90.10;101340.88;4114761;28;20034;-73
2021/05/18 07:32:40;;;;;;;11.13;2.50;;;13.70;99.90;;;12.93;89.67;101339.09;4121083;28;20054;-73
2021/05/18 07:34:41;;;;;;;11.98;3.30;;;13.70;99.90;;;12.93;89.50;101339.91;4121322;28;20035;-72
2021/05/18 07:36:43;;;;;;;17.77;2.90;;;13.80;99.90;;;12.95;89.09;101331.81;4121314;28;20034;-73
2021/05/18 07:38:48;;;;;;;12.18;2.60;;;13.80;99.90;;;13.02;88.91;101333.66;4120120;28;20030;-73
2021/05/18 07:40:49;;;;;;;13.55;3.70;;;13.90;99.90;;;12.95;89.56;101327.34;4120063;28;20036;-73
2021/05/18 07:42:53;;;;;;;11.15;2.38;;;13.90;99.90;;;13.14;89.43;101340.38;4119764;28;20057;-73
2021/05/18 07:44:54;;;;;;;7.70;2.20;;;14.10;99.90;;;13.15;88.79;101317.38;4121044;28;20486;-72
2021/05/18 07:46:55;;;;;;;9.80;2.45;;;14.10;99.90;;;13.36;86.94;101330.22;4120911;28;20027;-73
2021/05/18 08:06:51;;;;;;;12.38;3.28;;;15.10;99.90;;;13.62;84.42;101336.28;4103432;28;20038;-73
2021/05/18 08:08:52;;;;;;;9.63;2.88;;;15.00;99.90;;;13.75;84.87;101331.34;4107365;28;20069;-72
2021/05/18 08:10:59;;;;;;;10.55;2.60;;;15.00;99.90;;;13.98;83.40;101342.97;4116962;28;20098;-73
2021/05/18 08:13:00;;;;;;;14.52;2.90;;;15.10;99.90;;;14.11;82.99;101335.38;4120181;28;20035;-73
2021/05/18 08:17:25;;;;;;;10.02;2.40;;;15.40;99.90;;;14.40;81.34;101327.78;4120438;28;20049;-73
2021/05/18 10:14:31;;;;;;;4.95;1.65;;;17.30;99.90;;;15.90;66.58;101369.38;4102793;28;20509;-72
2021/05/18 10:35:52;;;;;;;4.28;1.27;;;14.40;99.90;;;13.83;82.17;101348.09;4118966;28;20433;-74
2021/05/18 10:38:05;;;;;;;3.47;1.23;;;14.40;99.90;;;14.01;81.17;101344.50;4119087;28;20058;-74
2021/05/18 10:40:25;;;;;;;8.40;2.07;;;14.60;99.90;;;14.05;77.04;101340.50;4118298;28;20026;-74
2021/05/18 10:42:26;;;;;;;4.38;1.65;;;14.80;99.90;;;14.27;79.45;101337.22;4118764;28;20070;-73
2021/05/18 10:44:27;;;;;;;5.20;1.65;;;15.00;99.90;;;14.28;79.57;101329.09;4118966;28;20022;-72
2021/05/18 10:46:51;;;;;;;1.67;0.88;;;15.10;99.90;;;14.47;74.96;101341.22;4117560;28;20553;-75
2021/05/18 10:48:55;;;;;;;4.25;1.10;;;15.40;99.90;;;14.62;76.66;101330.75;4118796;28;20554;-75
2021/05/18 10:50:56;;;;;;;3.10;1.20;;;15.50;99.90;;;14.68;75.37;101340.72;4119249;28;20031;-72
2021/05/18 10:53:21;;;;;;;4.07;1.52;;;15.60;99.90;;;14.83;74.59;101341.69;4121840;28;20033;-72
2021/05/18 10:55:22;;;;;;;3.33;1.65;;;15.70;99.90;;;15.03;74.55;101350.94;4121485;28;20030;-73
2021/05/18 10:57:30;;;;;;;3.30;1.17;;;15.80;99.90;;;15.03;68.53;101345.63;4121866;28;20038;-73
2021/05/18 11:00:00;;;;;;;2.47;1.10;;;16.00;99.90;;;15.20;68.31;101341.09;4120438;28;20027;-73
2021/05/18 11:02:25;;;;;;;1.67;0.75;;;16.10;99.90;;;15.31;64.73;101344.22;4121235;28;20074;-72
2021/05/18 11:04:28;;;;;;;;;;;16.30;99.90;;;15.37;65.57;101343.53;4121848;28;20129;-72
2021/05/18 11:06:29;;;;;;;2.47;0.95;;;16.50;99.90;;;15.38;65.74;101334.53;4121779;28;20333;-72
2021/05/18 11:08:30;;;;;;;3.65;1.02;;;16.60;99.90;;;15.34;69.09;101341.22;4121325;28;20081;-71
2021/05/18 11:10:34;;;;;;;4.22;1.10;;;16.60;99.90;;;15.52;71.05;101329.53;4114261;28;20178;-73
2021/05/18 11:12:36;;;;;;;2.95;1.27;;;16.80;99.90;;;15.50;68.82;101327.06;4105432;28;20015;-72
2021/05/18 11:14:52;;;;;;;6.85;1.50;;;16.80;99.90;;;15.76;70.47;101342.72;4104168;28;20028;-71
2021/05/18 11:17:11;;;;;;;5.40;1.58;;;16.80;99.90;;;15.84;72.36;101334.66;4105426;28;20050;-73
2021/05/18 11:19:13;;;;;;;7.30;1.90;;;16.90;99.90;;;15.87;70.60;101350.28;4104342;28;20411;-72
2021/05/18 11:21:14;;;;;;;2.35;1.00;;;17.00;99.90;;;15.98;68.10;101355.19;4105411;28;20159;-72
2021/05/18 11:23:22;;;;;;;2.80;1.15;;;17.10;99.90;;;15.84;64.47;101347.97;4106001;28;20387;-71
2021/05/18 11:25:28;;;;;;;5.32;1.77;;;17.20;99.90;;;15.61;64.23;101333.81;4105103;28;20479;-72
2021/05/18 11:27:29;;;;;;;2.65;1.02;;;17.10;99.90;;;15.41;66.25;101350.13;4121358;28;20077;-73
2021/05/18 11:29:41;;;;;;;3.53;1.48;;;17.10;99.90;;;16.03;64.89;101352.84;4106193;28;20411;-72
2021/05/18 11:31:42;;;;;;;5.68;1.65;;;17.40;99.90;;;16.07;65.75;101350.66;4105060;28;20059;-72
2021/05/18 11:33:48;;;;;;;4.07;1.02;;;17.50;99.90;;;16.19;67.16;101359.91;4117563;28;20050;-73
2021/05/18 11:36:08;;;;;;;6.28;1.42;;;17.50;99.90;;;16.03;65.34;101358.19;4106143;28;20109;-73
2021/05/18 11:38:14;;;;;;;3.20;1.02;;;17.50;99.90;;;16.01;66.58;101357.50;4121264;28;20055;-72
2021/05/18 11:40:17;;;;;;;8.07;1.73;;;17.50;99.90;;;16.14;66.31;101354.25;4120587;28;20034;-73
2021/05/18 11:42:30;;;;;;;6.55;2.20;;;17.50;99.90;;;16.03;68.03;101361.66;4120764;28;20046;-72
2021/05/18 11:44:36;;;;;;;6.28;1.60;;;17.40;99.90;;;15.83;67.46;101355.13;4120737;28;20886;-72
2021/05/18 11:46:47;;;;;;;6.90;1.65;;;17.30;99.90;;;15.70;69.78;101356.69;4121186;28;20414;-73
2021/05/18 11:49:12;;;;;;;7.68;1.63;;;17.10;99.90;;;15.95;67.77;101360.88;4120908;28;20105;-73
2021/05/18 11:51:14;;;;;;;8.63;2.15;;;17.20;99.90;;;16.03;69.81;101350.19;4120456;28;20031;-78
2021/05/18 11:53:42;;;;;;;6.30;1.83;;;17.20;99.90;;;16.17;66.29;101349.41;4120960;28;20494;-76
2021/05/18 11:55:42;;;;;;;6.07;1.60;;;17.30;99.90;;;16.08;67.33;101334.50;4120624;28;20103;-75
2021/05/18 11:57:44;;;;;;;4.50;1.27;;;17.40;99.90;;;16.27;67.55;101358.00;4119801;28;20023;-76
2021/05/18 11:59:44;;;;;;;5.63;1.40;;;17.30;99.90;;;16.29;66.23;101358.66;4120810;28;20085;-76
2021/05/18 12:01:56;;;;;;;4.00;1.42;;;17.50;99.90;;;16.41;65.84;101359.06;4120081;28;20434;-76
2021/05/18 12:04:23;;;;;;;5.75;1.40;;;17.50;99.90;;;16.32;63.21;101354.78;4120919;28;20031;-78
2021/05/18 12:06:24;;;;;;;5.78;1.40;;;17.50;99.90;;;16.23;65.09;101369.16;4119299;28;20062;-72
2021/05/18 12:08:31;;;;;;;5.00;1.38;;;17.60;99.90;;;16.12;66.48;101361.59;4120607;28;20018;-72
2021/05/18 12:10:35;;;;;;;4.40;1.02;;;17.60;99.90;;;16.14;68.86;101365.75;4103999;28;20034;-72
2021/05/18 12:12:38;;;;;;;4.50;1.38;;;17.60;99.90;;;16.16;63.53;101355.75;4104474;28;20031;-72
2021/05/18 12:14:47;;;;;;;3.83;1.42;;;17.60;99.90;;;16.27;68.27;101358.00;4103431;28;20027;-72
2021/05/18 12:16:48;;;;;;;5.15;1.40;;;17.60;99.90;;;16.31;66.37;101369.09;4103112;28;20031;-72
2021/05/18 12:18:55;;;;;;;5.40;1.70;;;17.70;99.90;;;16.29;63.00;101365.81;4104556;28;20039;-71
2021/05/18 12:21:14;;;;;;;7.15;1.55;;;17.70;99.90;;;16.31;66.69;101358.47;4103991;28;20514;-72
2021/05/18 12:23:15;;;;;;;2.95;1.13;;;17.80;99.90;;;16.39;64.12;101367.25;4104370;28;20063;-72
2021/05/18 12:25:42;;;;;;;3.60;1.40;;;17.90;99.90;;;16.19;62.02;101362.56;4104127;28;20028;-72
2021/05/18 12:27:45;;;;;;;3.50;1.10;;;17.80;99.90;;;16.18;63.73;101353.75;4101884;28;20046;-72
2021/05/18 12:29:57;;;;;;;3.08;1.33;;;17.90;99.90;;;16.15;59.96;101358.59;4102870;28;20549;-73
2021/05/18 12:32:16;;;;;;;5.15;1.48;;;18.00;99.90;;;16.41;60.08;101380.34;4104267;28;20031;-72
2021/05/18 12:34:29;;;;;;;4.95;1.17;;;18.00;99.90;;;16.42;59.92;101366.03;4102896;28;20027;-72
2021/05/18 12:36:31;;;;;;;3.88;1.15;;;18.10;99.90;;;16.34;58.75;101353.59;4102980;28;20418;-72
2021/05/18 12:38:32;;;;;;;5.25;1.33;;;18.20;99.90;;;16.14;58.43;101381.72;4118899;28;20161;-72
2021/05/18 12:40:34;;;;;;;3.90;1.77;;;18.10;99.90;;;16.37;57.40;101373.72;4102134;28;20023;-70
2021/05/18 12:42:35;;;;;;;5.78;2.10;;;18.20;99.90;;;16.41;57.67;101377.69;4102760;28;20023;-72
2021/05/18 12:45:00;;;;;;;8.80;1.70;;;18.20;99.90;;;16.14;56.42;101359.59;4103188;28;20622;-72
2021/05/18 12:47:06;;;;;;;4.47;1.52;;;18.10;99.90;;;16.36;59.31;101366.75;4103966;28;20031;-72
2021/05/18 12:49:48;;;;;;;5.43;1.38;;;18.20;99.90;;;16.48;55.49;101374.16;4104008;28;20035;-72
2021/05/18 12:52:07;;;;;;;4.75;1.35;;;18.40;99.20;;;16.99;59.04;101377.06;4103871;28;20075;-72
2021/05/18 12:54:08;;;;;;;3.63;1.20;;;18.70;99.90;;;16.38;58.51;101370.06;4104164;28;20062;-73
2021/05/18 12:56:12;;;;;;;8.30;1.90;;;18.60;99.90;;;16.63;57.43;101368.06;4104179;28;20031;-73
2021/05/18 12:58:28;;;;;;;5.68;1.13;;;18.50;99.90;;;16.64;60.96;101364.38;4102965;28;20027;-74
2021/05/18 13:00:44;;;;;;;6.22;1.83;;;18.50;99.90;;;17.10;63.01;101376.59;4102248;28;20031;-74
2021/05/18 13:02:47;;;;;;;5.32;1.70;;;18.70;99.90;;;17.55;59.58;101380.94;4103581;28;20384;-74
2021/05/18 13:05:15;;;;;;;4.75;1.45;;;19.10;99.90;;;16.93;57.55;101369.78;4103846;28;20039;-75
2021/05/18 13:07:16;;;;;;;5.95;1.48;;;19.20;99.90;;;16.83;56.31;101382.53;4107897;28;20041;-75
2021/05/18 13:09:25;;;;;;;3.00;1.17;;;18.90;99.00;;;17.20;58.01;101385.16;4113730;28;20035;-72
2021/05/18 13:13:36;;;;;;;6.05;1.60;;;19.30;98.80;;;17.75;57.13;101376.66;4103169;28;20034;-73
2021/05/18 13:15:37;;;;;;;2.75;1.30;;;19.40;99.90;;;17.85;56.18;101371.03;4103706;28;20391;-73
2021/05/18 13:17:54;;;;;;;2.72;1.10;;;19.80;99.90;;;18.05;54.11;101361.38;4102498;28;20043;-73
2021/05/18 13:20:21;;;;;;;5.35;1.23;;;20.10;98.30;;;17.81;55.63;101370.56;4103000;28;20042;-73
2021/05/18 13:22:23;;;;;;;4.63;1.30;;;20.10;98.80;;;17.43;57.32;101372.53;4110501;28;20053;-73